Time;durP1;ratioP1;P1;durP2;ratioP2;P2;SDS_P1;SDS_P2;PMS_P1;PMS_P2;Temp;Humidity;BMP_temperature;BMP_pressure;BME280_temperature;BME280_humidity;BME280_pressure;Samples;Min_cycle;Max_cycle;Signal;HPM_P1;HPM_P2
2024/04/06 00:01:07;;;;;;;11.15;3.75;;;;;;;19.01;43.14;100119.91;5094008;28;20051;-38
2024/04/06 00:03:33;;;;;;;6.60;4.05;;;;;;;19.14;43.60;100127.63;5094062;28;20550;-37
2024/04/06 00:05:58;;;;;;;13.10;4.47;;;;;;;19.06;43.89;100122.69;5093792;28;20531;-37
2024/04/06 00:08:23;;;;;;;7.70;3.60;;;;;;;19.04;44.34;100122.94;5094052;28;20081;-38
2024/04/06 00:10:49;;;;;;;7.05;3.80;;;;;;;19.16;44.25;100124.69;5093469;28;20012;-39
2024/04/06 00:13:14;;;;;;;7.72;3.85;;;;;;;19.09;43.27;100131.06;5093644;28;20041;-40
2024/04/06 00:15:40;;;;;;;8.32;4.50;;;;;;;19.13;43.00;100137.63;5093653;28;20125;-39
2024/04/06 00:18:05;;;;;;;8.38;4.20;;;;;;;19.03;43.25;100132.06;5093927;28;20069;-39
2024/04/06 00:20:34;;;;;;;6.60;3.95;;;;;;;18.60;43.91;100138.19;5093397;28;20495;-40
2024/04/06 00:22:59;;;;;;;9.30;4.47;;;;;;;18.71;43.33;100139.97;5093604;28;20554;-38
2024/04/06 00:25:25;;;;;;;7.15;4.00;;;;;;;18.73;43.44;100133.28;5093406;28;20024;-39
2024/04/06 00:27:50;;;;;;;12.55;4.28;;;;;;;18.91;43.70;100152.97;5093397;28;20024;-39
2024/04/06 00:30:16;;;;;;;9.63;4.03;;;;;;;19.05;42.54;100148.00;5093225;28;20012;-40
2024/04/06 00:32:41;;;;;;;7.90;3.90;;;;;;;19.05;42.25;100145.31;5093452;28;20035;-36
2024/04/06 00:35:06;;;;;;;8.80;3.30;;;;;;;19.00;40.20;100147.94;5088024;28;20029;-37
2024/04/06 00:37:32;;;;;;;10.93;3.80;;;;;;;18.41;40.82;100146.53;5073076;28;20047;-40
2024/04/06 00:39:57;;;;;;;6.75;3.70;;;;;;;17.97;41.70;100128.31;5072764;28;20056;-37
2024/04/06 00:42:23;;;;;;;5.78;3.55;;;;;;;17.71;46.07;100145.84;5072959;28;20462;-39
2024/04/06 00:44:48;;;;;;;8.77;3.60;;;;;;;17.83;46.27;100145.78;5076226;28;20016;-40
2024/04/06 00:47:14;;;;;;;9.10;3.88;;;;;;;17.74;44.98;100148.06;5093091;28;20429;-37
2024/04/06 00:49:39;;;;;;;6.57;3.30;;;;;;;18.00;45.27;100142.34;5092931;28;20052;-38
2024/04/06 00:52:05;;;;;;;7.32;3.80;;;;;;;17.65;46.06;100154.88;5092978;28;20047;-37
2024/04/06 00:54:30;;;;;;;6.53;3.20;;;;;;;17.67;45.97;100158.16;5092898;28;20035;-40
2024/04/06 00:56:56;;;;;;;6.40;3.80;;;;;;;17.88;44.53;100150.50;5092757;28;20024;-36
2024/04/06 00:59:22;;;;;;;6.82;3.28;;;;;;;17.49;44.79;100161.00;5092730;28;20032;-39
2024/04/06 01:01:48;;;;;;;8.20;3.40;;;;;;;17.28;46.65;100160.59;5092490;28;20016;-39
2024/04/06 01:04:14;;;;;;;5.78;3.30;;;;;;;17.37;44.53;100153.78;5093013;28;20028;-40
2024/04/06 01:06:40;;;;;;;6.43;3.28;;;;;;;17.51;44.06;100142.75;5092913;28;20546;-39
2024/04/06 01:09:07;;;;;;;5.85;3.25;;;;;;;17.33;43.74;100135.69;5093349;28;20383;-40
2024/04/06 01:11:35;;;;;;;7.18;3.40;;;;;;;17.23;44.06;100132.78;5093510;28;20093;-40
2024/04/06 01:14:02;;;;;;;6.97;3.50;;;;;;;16.97;44.60;100138.44;5093003;28;20617;-40
2024/04/06 01:16:27;;;;;;;6.57;3.10;;;;;;;16.83;44.87;100131.69;5093087;28;20024;-40
2024/04/06 01:18:53;;;;;;;5.30;3.38;;;;;;;16.57;45.50;100124.91;5092785;28;20028;-39
2024/04/06 01:21:19;;;;;;;6.88;3.20;;;;;;;16.48;46.49;100124.41;5093007;28;20076;-37
2024/04/06 01:23:46;;;;;;;7.30;3.78;;;;;;;16.51;46.02;100125.84;5093197;28;20024;-40
2024/04/06 01:26:11;;;;;;;5.07;3.20;;;;;;;16.41;45.84;100123.69;5093434;28;20549;-36
2024/04/06 01:28:37;;;;;;;5.18;3.30;;;;;;;16.34;45.49;100118.47;5092902;28;20024;-40
2024/04/06 01:31:02;;;;;;;6.18;3.00;;;;;;;16.28;45.03;100113.19;5092638;28;20012;-40
2024/04/06 01:33:27;;;;;;;5.80;3.15;;;;;;;16.20;45.61;100119.72;5086319;28;20154;-39
2024/04/06 01:35:53;;;;;;;6.25;3.03;;;;;;;16.16;45.95;100114.00;5081149;28;20026;-39
2024/04/06 01:38:18;;;;;;;5.35;3.33;;;;;;;16.11;44.90;100113.88;5092540;28;20044;-39
2024/04/06 01:40:44;;;;;;;5.20;2.80;;;;;;;16.02;45.56;100110.69;5092745;28;20111;-40
2024/04/06 01:43:09;;;;;;;5.65;3.13;;;;;;;15.78;45.68;100098.25;5092343;28;20050;-37
2024/04/06 01:45:34;;;;;;;6.00;2.90;;;;;;;15.92;45.38;100105.09;5092418;28;20032;-39
2024/04/06 01:48:00;;;;;;;5.70;3.08;;;;;;;15.94;45.95;100100.31;5092413;28;20020;-40
2024/04/06 01:50:25;;;;;;;4.57;2.80;;;;;;;15.95;46.79;100101.91;5092212;28;20027;-41
2024/04/06 01:52:51;;;;;;;4.28;2.90;;;;;;;15.99;46.43;100092.38;5092480;28;20097;-38
2024/04/06 01:55:16;;;;;;;7.45;2.97;;;;;;;15.82;47.19;100097.59;5092650;28;20024;-40
2024/04/06 01:57:41;;;;;;;9.27;3.05;;;;;;;15.76;46.99;100100.34;5092367;28;20507;-40
2024/04/06 02:00:08;;;;;;;5.38;2.92;;;;;;;15.77;47.05;100092.09;5092242;28;20028;-40
2024/04/06 02:02:34;;;;;;;5.63;3.08;;;;;;;15.73;46.84;100101.66;5092149;28;20368;-40
2024/04/06 02:04:59;;;;;;;5.93;2.97;;;;;;;15.74;47.09;100115.88;5092209;28;20077;-40
2024/04/06 02:07:25;;;;;;;5.45;2.80;;;;;;;15.74;47.37;100107.81;5092038;28;20385;-40
2024/04/06 02:09:50;;;;;;;7.82;3.05;;;;;;;15.63;47.54;100104.84;5092431;28;20028;-38
2024/04/06 02:12:15;;;;;;;4.97;3.00;;;;;;;15.69;47.68;100111.16;5092166;28;20013;-39
2024/04/06 02:14:41;;;;;;;8.23;3.20;;;;;;;15.57;48.28;100119.19;5092208;28;20027;-39
2024/04/06 02:17:06;;;;;;;7.38;3.08;;;;;;;15.55;47.56;100115.88;5091545;28;20472;-40
2024/04/06 02:19:32;;;;;;;4.10;2.80;;;;;;;15.55;47.54;100109.72;5091393;28;20464;-40
2024/04/06 02:21:58;;;;;;;6.75;2.75;;;;;;;15.42;47.47;100105.31;5091814;28;20035;-40
2024/04/06 02:24:23;;;;;;;6.15;3.20;;;;;;;15.41;47.04;100114.44;5090412;28;20468;-40
2024/04/06 02:26:49;;;;;;;4.85;2.47;;;;;;;15.45;47.58;100116.44;5092102;28;20023;-39
2024/04/06 02:29:15;;;;;;;5.68;2.53;;;;;;;15.20;47.44;100118.41;5091521;28;20120;-39
2024/04/06 02:31:40;;;;;;;4.18;2.60;;;;;;;15.18;47.55;100110.59;5084138;28;20017;-39
2024/04/06 02:34:06;;;;;;;9.55;2.78;;;;;;;15.22;47.60;100114.44;5076575;28;20639;-40
2024/04/06 02:36:31;;;;;;;4.45;2.80;;;;;;;15.18;47.85;100117.81;5091516;28;20024;-41
2024/04/06 02:38:57;;;;;;;7.90;2.90;;;;;;;15.17;48.03;100098.25;5091068;28;20135;-38
2024/04/06 02:41:23;;;;;;;8.65;3.15;;;;;;;15.27;48.17;100102.22;5091274;28;20158;-40
2024/04/06 02:43:49;;;;;;;9.02;3.30;;;;;;;15.19;48.34;100100.69;5091720;28;20042;-39
2024/04/06 02:46:15;;;;;;;6.72;3.15;;;;;;;15.08;49.04;100091.53;5091222;28;20047;-40
2024/04/06 02:48:40;;;;;;;7.63;3.30;;;;;;;14.92;49.16;100092.94;5091206;28;20035;-39
2024/04/06 02:51:06;;;;;;;6.80;3.13;;;;;;;15.06;49.14;100090.97;5091221;28;20020;-40
2024/04/06 02:53:31;;;;;;;7.82;3.58;;;;;;;15.02;48.80;100079.03;5091388;28;20032;-40
2024/04/06 02:55:57;;;;;;;6.70;3.40;;;;;;;14.78;49.31;100078.88;5091286;28;20590;-40
2024/04/06 02:58:23;;;;;;;12.05;4.13;;;;;;;14.77;49.63;100074.56;5091238;28;20488;-38
2024/04/06 03:00:48;;;;;;;12.45;3.90;;;;;;;14.67;50.22;100093.00;5091337;28;20125;-40
2024/04/06 03:03:15;;;;;;;8.73;4.05;;;;;;;14.52;50.51;100089.84;5090460;28;20134;-40
2024/04/06 03:05:40;;;;;;;7.32;3.67;;;;;;;14.29;50.68;100091.28;5090882;28;20089;-40
2024/04/06 03:08:06;;;;;;;8.68;4.30;;;;;;;14.23;51.24;100102.88;5090740;28;20027;-39
2024/04/06 03:10:32;;;;;;;7.18;3.90;;;;;;;14.16;51.42;100094.88;5090716;28;20020;-40
2024/04/06 03:12:58;;;;;;;8.38;4.07;;;;;;;14.36;50.92;100089.38;5090699;28;20019;-39
2024/04/06 03:15:23;;;;;;;9.07;3.95;;;;;;;14.40;50.68;100095.91;5090818;28;20027;-41
2024/04/06 03:17:49;;;;;;;7.45;3.67;;;;;;;14.32;50.18;100087.34;5090764;28;20494;-39
2024/04/06 03:20:14;;;;;;;10.60;3.53;;;;;;;14.22;50.55;100099.38;5090563;28;20035;-41
2024/04/06 03:22:39;;;;;;;8.77;3.80;;;;;;;14.38;51.10;100099.88;5090671;28;20028;-40
2024/04/06 03:25:05;;;;;;;7.65;3.67;;;;;;;14.48;50.36;100117.03;5090820;28;20028;-40
2024/04/06 03:27:30;;;;;;;7.63;3.53;;;;;;;14.48;48.79;100108.19;5090691;28;20373;-40
2024/04/06 03:29:56;;;;;;;10.75;4.30;;;;;;;14.41;49.46;100107.44;5090380;28;20076;-40
2024/04/06 03:32:21;;;;;;;11.35;6.47;;;;;;;14.37;50.89;100117.75;5090590;28;20020;-40
2024/04/06 03:34:47;;;;;;;9.05;4.40;;;;;;;14.50;50.64;100116.03;5090797;28;20423;-40
2024/04/06 03:37:12;;;;;;;13.57;7.60;;;;;;;14.52;50.60;100120.09;5090381;28;20024;-41
2024/04/06 03:39:38;;;;;;;11.10;6.50;;;;;;;14.58;50.34;100116.59;5090370;28;20185;-41
2024/04/06 03:42:04;;;;;;;13.07;7.78;;;;;;;14.53;50.31;100115.59;5090624;28;20017;-41
2024/04/06 03:44:29;;;;;;;16.05;8.45;;;;;;;14.49;50.45;100120.56;5090441;28;20438;-41
2024/04/06 03:46:54;;;;;;;9.25;4.38;;;;;;;14.40;50.47;100117.34;5090272;28;20028;-37
2024/04/06 03:49:20;;;;;;;5.88;3.30;;;;;;;14.34;50.25;100128.13;5090585;28;20016;-42
2024/04/06 03:51:45;;;;;;;6.65;3.63;;;;;;;14.34;50.02;100126.25;5090360;28;20020;-39
2024/04/06 03:54:11;;;;;;;6.22;3.05;;;;;;;14.31;50.09;100124.00;5090797;28;20095;-39
2024/04/06 03:56:37;;;;;;;7.28;3.25;;;;;;;14.36;49.10;100134.88;5090337;28;20387;-39
2024/04/06 03:59:02;;;;;;;5.32;2.70;;;;;;;14.40;48.85;100132.59;5090677;28;20129;-39
2024/04/06 04:01:28;;;;;;;5.63;3.20;;;;;;;14.49;48.99;100133.97;5090736;28;20464;-39
2024/04/06 04:03:53;;;;;;;7.15;3.55;;;;;;;14.46;49.80;100134.38;5090918;28;20521;-40
2024/04/06 04:06:18;;;;;;;7.35;3.22;;;;;;;14.40;49.50;100129.91;5090736;28;20028;-39
2024/04/06 04:08:44;;;;;;;9.77;3.35;;;;;;;14.38;49.85;100138.16;5090679;28;20032;-41
2024/04/06 04:11:10;;;;;;;8.68;3.40;;;;;;;14.45;50.10;100144.28;5090616;28;20024;-40
2024/04/06 04:13:35;;;;;;;11.57;3.15;;;;;;;14.64;49.80;100142.50;5090619;28;20016;-40
2024/04/06 04:16:01;;;;;;;4.90;3.28;;;;;;;14.72;49.68;100133.34;5090717;28;20012;-40
2024/04/06 04:18:26;;;;;;;8.70;3.50;;;;;;;14.79;48.68;100133.28;5090543;28;20498;-40
2024/04/06 04:20:52;;;;;;;9.68;3.13;;;;;;;14.79;48.93;100138.63;5090429;28;20016;-40
2024/04/06 04:23:17;;;;;;;14.13;3.22;;;;;;;14.59;49.05;100147.69;5089529;28;20024;-40
2024/04/06 04:25:43;;;;;;;10.35;3.40;;;;;;;14.83;49.05;100146.03;5090535;28;20731;-41
2024/04/06 04:28:08;;;;;;;15.50;4.20;;;;;;;15.12;48.80;100146.34;5090347;28;20480;-41
2024/04/06 04:30:34;;;;;;;14.60;4.15;;;;;;;15.08;48.67;100142.47;5090463;28;20013;-41
2024/04/06 04:32:59;;;;;;;15.75;3.88;;;;;;;15.02;48.55;100146.03;5090845;28;20020;-39
2024/04/06 04:35:25;;;;;;;11.35;3.90;;;;;;;15.06;48.11;100141.88;5090670;28;20042;-40
2024/04/06 04:37:50;;;;;;;9.77;3.72;;;;;;;15.19;47.60;100146.25;5090836;28;20400;-41
2024/04/06 04:40:15;;;;;;;9.55;3.72;;;;;;;15.30;47.95;100139.31;5090497;28;20031;-41
2024/04/06 04:42:41;;;;;;;11.23;5.43;;;;;;;15.71;48.64;100148.50;5093720;28;20384;-41
2024/04/06 04:45:14;;;;;;;8.90;4.47;;;;;;;16.00;47.62;100145.00;5093905;28;20024;-40
2024/04/06 04:47:41;;;;;;;10.98;4.03;;;;;;;16.71;48.24;100149.66;5094377;28;20103;-40
2024/04/06 04:50:08;;;;;;;13.30;6.40;;;;;;;17.00;45.75;100140.66;5094243;28;20031;-41
2024/04/06 04:52:34;;;;;;;21.00;12.20;;;;;;;17.17;45.25;100148.84;5093794;28;20054;-43
2024/04/06 04:54:59;;;;;;;22.63;9.65;;;;;;;17.17;45.01;100154.22;5094503;28;20024;-40
2024/04/06 04:57:25;;;;;;;14.50;7.10;;;;;;;17.22;44.09;100152.69;5093573;28;20403;-37
2024/04/06 04:59:50;;;;;;;10.98;5.15;;;;;;;17.28;43.92;100163.28;5093907;28;20031;-40
2024/04/06 05:02:16;;;;;;;7.25;4.65;;;;;;;17.37;43.88;100161.88;5093160;28;20020;-40
2024/04/06 05:04:42;;;;;;;9.35;5.13;;;;;;;17.35;43.65;100160.47;5093569;28;20024;-41
2024/04/06 05:07:08;;;;;;;6.38;3.60;;;;;;;17.43;42.15;100152.03;5093714;28;20123;-38
2024/04/06 05:09:33;;;;;;;7.40;4.15;;;;;;;17.30;41.79;100147.72;5093656;28;20519;-37
2024/04/06 05:11:59;;;;;;;10.48;4.40;;;;;;;17.34;42.14;100150.75;5093691;28;20434;-41
2024/04/06 05:14:24;;;;;;;9.65;3.83;;;;;;;17.35;42.16;100153.22;5093573;28;20054;-38
2024/04/06 05:16:49;;;;;;;10.27;4.05;;;;;;;17.36;42.29;100148.66;5093411;28;20024;-38
2024/04/06 05:19:15;;;;;;;11.63;4.20;;;;;;;17.30;42.69;100153.09;5091867;28;20361;-39
2024/04/06 05:21:40;;;;;;;10.95;3.63;;;;;;;17.16;42.38;100157.13;5079802;28;20491;-40
2024/04/06 05:24:06;;;;;;;8.77;3.70;;;;;;;16.98;43.00;100152.69;5093398;28;20127;-39
2024/04/06 05:26:31;;;;;;;11.40;3.70;;;;;;;16.95;43.50;100154.00;5086632;28;20389;-41
2024/04/06 05:28:57;;;;;;;11.85;3.88;;;;;;;16.73;43.60;100151.03;5086502;28;20028;-41
2024/04/06 05:31:22;;;;;;;10.40;4.07;;;;;;;16.76;44.60;100147.91;5091768;28;20024;-41
2024/04/06 05:33:48;;;;;;;9.00;4.30;;;;;;;16.84;44.55;100156.69;5093144;28;20036;-40
2024/04/06 05:36:14;;;;;;;10.48;3.80;;;;;;;16.85;43.22;100148.41;5093210;28;20032;-37
2024/04/06 05:38:40;;;;;;;10.82;3.83;;;;;;;17.23;43.05;100156.97;5092742;28;20052;-40
2024/04/06 05:41:05;;;;;;;10.90;4.05;;;;;;;17.69;43.48;100156.03;5092940;28;20078;-40
2024/04/06 05:43:31;;;;;;;9.60;3.58;;;;;;;18.25;41.60;100147.34;5093208;28;20035;-40
2024/04/06 05:46:02;;;;;;;10.70;3.35;;;;;;;18.70;40.63;100159.91;5092877;28;20519;-41
2024/04/06 05:48:28;;;;;;;10.45;3.70;;;;;;;19.37;39.89;100158.94;5093105;28;20110;-39
2024/04/06 05:50:54;;;;;;;12.82;3.80;;;;;;;19.70;39.11;100168.78;5092980;28;20099;-39
2024/04/06 05:53:19;;;;;;;7.85;3.67;;;;;;;20.14;38.31;100169.75;5092790;28;20020;-41
2024/04/06 05:55:45;;;;;;;13.68;3.83;;;;;;;20.71;37.14;100163.75;5092922;28;20108;-39
2024/04/06 05:58:11;;;;;;;12.13;4.30;;;;;;;21.39;36.44;100161.13;5092407;28;20020;-37
2024/04/06 06:00:37;;;;;;;12.38;4.22;;;;;;;22.02;34.88;100168.34;5091908;28;20031;-36
2024/04/06 06:03:02;;;;;;;8.75;4.15;;;;;;;22.44;34.66;100172.72;5092108;28;20016;-38
2024/04/06 06:05:28;;;;;;;10.98;4.18;;;;;;;22.68;33.48;100175.72;5091861;28;20016;-41
2024/04/06 06:07:53;;;;;;;7.57;4.20;;;;;;;23.12;32.68;100177.81;5092037;28;20016;-39
2024/04/06 06:10:19;;;;;;;10.32;4.78;;;;;;;23.48;32.36;100172.22;5092540;28;20022;-38
2024/04/06 06:12:44;;;;;;;10.32;4.22;;;;;;;23.62;32.17;100183.28;5091263;28;20012;-39
2024/04/06 06:15:11;;;;;;;13.98;5.20;;;;;;;23.76;31.87;100178.03;5077677;28;20452;-37
2024/04/06 06:17:37;;;;;;;14.68;5.90;;;;;;;23.21;32.17;100181.56;5091539;28;20028;-40
2024/04/06 06:20:07;;;;;;;16.83;6.38;;;;;;;23.05;32.38;100179.19;5091609;28;20016;-41
2024/04/06 06:22:32;;;;;;;18.00;7.20;;;;;;;22.63;32.76;100179.22;5091731;28;20031;-39
2024/04/06 06:24:58;;;;;;;13.95;5.68;;;;;;;22.81;32.76;100168.91;5091394;28;20016;-38
2024/04/06 06:27:23;;;;;;;11.48;5.68;;;;;;;23.16;32.19;100167.22;5091344;28;20028;-39
2024/04/06 06:29:49;;;;;;;15.40;6.47;;;;;;;23.59;31.39;100167.56;5090590;28;20035;-40
2024/04/06 06:32:15;;;;;;;15.43;5.72;;;;;;;23.95;31.34;100154.59;5091181;28;20027;-36
2024/04/06 06:34:40;;;;;;;10.05;3.90;;;;;;;24.62;30.32;100154.06;5089975;28;20043;-40
2024/04/06 06:37:06;;;;;;;10.65;5.07;;;;;;;25.24;31.14;100165.13;5089929;28;20038;-37
2024/04/06 06:39:31;;;;;;;14.15;4.10;;;;;;;25.64;29.06;100157.50;5089395;28;20048;-39
2024/04/06 06:41:57;;;;;;;11.38;3.83;;;;;;;25.45;28.82;100160.22;5089456;28;20036;-38
2024/04/06 06:44:22;;;;;;;9.18;3.63;;;;;;;25.78;28.80;100160.34;5089585;28;20097;-40
2024/04/06 06:46:48;;;;;;;10.80;3.75;;;;;;;26.39;28.35;100161.31;5090179;28;20111;-40
2024/04/06 06:49:13;;;;;;;6.18;3.60;;;;;;;26.53;27.80;100159.41;5090026;28;20028;-38
2024/04/06 06:51:39;;;;;;;8.43;3.35;;;;;;;26.49;27.62;100155.66;5090883;28;20095;-40
2024/04/06 06:54:05;;;;;;;10.48;5.95;;;;;;;26.68;26.80;100155.63;5091023;28;20038;-36
2024/04/06 06:56:30;;;;;;;4.97;3.50;;;;;;;26.88;26.91;100156.34;5091179;28;20140;-39
2024/04/06 06:58:56;;;;;;;6.63;3.33;;;;;;;27.82;25.99;100170.53;5091179;28;20106;-41
2024/04/06 07:01:22;;;;;;;6.88;3.22;;;;;;;28.15;25.19;100167.59;5091073;28;20024;-39
2024/04/06 07:03:47;;;;;;;8.30;3.00;;;;;;;27.76;25.49;100169.00;5090461;28;20024;-40
2024/04/06 07:06:13;;;;;;;8.07;2.83;;;;;;;28.12;24.85;100170.94;5089342;28;20415;-38
2024/04/06 07:08:39;;;;;;;6.05;3.53;;;;;;;28.37;24.27;100164.84;5090927;28;20020;-38
2024/04/06 07:11:05;;;;;;;5.68;2.80;;;;;;;28.73;24.26;100168.59;5090593;28;20107;-37
2024/04/06 07:13:31;;;;;;;8.05;2.90;;;;;;;28.94;23.36;100174.31;5090572;28;20099;-39
2024/04/06 07:16:04;;;;;;;4.38;2.50;;;;;;;29.27;23.26;100174.00;5090771;28;20464;-40
2024/04/06 07:18:29;;;;;;;6.35;3.30;;;;;;;29.38;23.64;100173.38;5090449;28;20024;-36
2024/04/06 07:20:55;;;;;;;10.27;3.15;;;;;;;30.05;23.11;100176.84;5090659;28;20034;-37
2024/04/06 07:23:20;;;;;;;8.13;3.40;;;;;;;29.90;23.15;100169.91;5090614;28;20104;-41
2024/04/06 07:25:46;;;;;;;9.10;3.50;;;;;;;30.21;22.73;100183.44;5090575;28;20034;-39
2024/04/06 07:28:11;;;;;;;7.93;3.90;;;;;;;29.27;23.75;100179.47;5090889;28;20103;-36
2024/04/06 07:30:37;;;;;;;7.13;3.55;;;;;;;29.61;23.50;100178.75;5090719;28;20097;-39
2024/04/06 07:33:02;;;;;;;8.40;3.35;;;;;;;28.92;24.48;100171.94;5090827;28;20049;-40
2024/04/06 07:35:28;;;;;;;6.53;3.70;;;;;;;29.55;23.46;100174.50;5090786;28;20123;-39
2024/04/06 07:37:53;;;;;;;7.90;3.75;;;;;;;28.62;24.82;100171.63;5090136;28;20024;-37
2024/04/06 07:40:19;;;;;;;8.18;3.83;;;;;;;29.12;24.04;100175.22;5090058;28;20039;-37
2024/04/06 07:42:44;;;;;;;7.35;3.50;;;;;;;30.07;22.22;100179.25;5090537;28;20085;-38
2024/04/06 07:45:09;;;;;;;12.25;5.68;;;;;;;29.05;24.54;100173.75;5090596;28;20435;-37
2024/04/06 07:47:35;;;;;;;10.38;4.00;;;;;;;29.31;23.71;100169.50;5090579;28;20093;-38
2024/04/06 07:50:00;;;;;;;7.38;3.78;;;;;;;30.15;22.82;100168.25;5090339;28;20020;-40
2024/04/06 07:52:26;;;;;;;9.65;3.67;;;;;;;30.31;22.00;100174.06;5090682;28;20020;-39
2024/04/06 07:54:51;;;;;;;8.32;3.70;;;;;;;28.75;24.06;100167.19;5090401;28;20476;-39
2024/04/06 07:57:17;;;;;;;7.53;3.30;;;;;;;29.43;23.56;100162.28;5090520;28;20081;-39
2024/04/06 07:59:43;;;;;;;9.75;4.03;;;;;;;29.83;22.69;100172.31;5090792;28;20446;-40
2024/04/06 08:02:10;;;;;;;11.95;4.38;;;;;;;30.30;22.86;100166.94;5090757;28;20063;-39
2024/04/06 08:04:36;;;;;;;10.20;4.80;;;;;;;30.23;22.92;100163.09;5091120;28;20698;-41
2024/04/06 08:07:03;;;;;;;15.38;5.40;;;;;;;29.90;24.14;100161.66;5090789;28;20020;-38
2024/04/06 08:09:29;;;;;;;10.65;5.22;;;;;;;29.69;24.09;100158.75;5091142;28;20019;-38
2024/04/06 08:11:54;;;;;;;10.85;5.40;;;;;;;28.89;24.97;100153.38;5090671;28;20039;-36
2024/04/06 08:14:20;;;;;;;10.50;5.07;;;;;;;29.29;24.26;100152.56;5089677;28;20107;-36
2024/04/06 08:16:45;;;;;;;14.57;4.80;;;;;;;29.67;24.19;100152.78;5091835;28;20024;-41
2024/04/06 08:19:10;;;;;;;10.60;4.63;;;;;;;29.62;23.96;100151.00;5093953;28;20345;-38
2024/04/06 08:21:36;;;;;;;13.13;5.13;;;;;;;29.17;24.89;100154.00;5093108;28;20036;-35
2024/04/06 08:24:01;;;;;;;16.35;5.30;;;;;;;28.82;25.16;100153.03;5093635;28;20024;-40
2024/04/06 08:26:27;;;;;;;11.20;5.15;;;;;;;28.94;25.31;100150.50;5093676;28;20141;-39
2024/04/06 08:28:52;;;;;;;16.73;5.43;;;;;;;28.61;25.82;100142.63;5093681;28;20495;-38
2024/04/06 08:31:18;;;;;;;18.10;5.00;;;;;;;28.52;25.79;100146.44;5093839;28;20027;-40
2024/04/06 08:33:43;;;;;;;15.30;4.40;;;;;;;28.71;25.35;100135.25;5093700;28;20034;-37
2024/04/06 08:36:09;;;;;;;9.40;4.13;;;;;;;29.16;24.49;100135.13;5093535;28;20529;-39
2024/04/06 08:38:34;;;;;;;15.05;3.83;;;;;;;29.66;24.67;100142.13;5093290;28;20500;-38
2024/04/06 08:41:07;;;;;;;7.45;3.80;;;;;;;29.72;24.59;100130.69;5093404;28;20043;-37
2024/04/06 08:43:36;;;;;;;9.68;4.15;;;;;;;30.28;23.75;100136.28;5093218;28;20024;-41
2024/04/06 08:46:05;;;;;;;8.05;4.07;;;;;;;30.26;23.94;100124.84;5093648;28;20154;-39
2024/04/06 08:48:34;;;;;;;8.50;4.20;;;;;;;29.92;24.26;100126.50;5093308;28;20031;-39
2024/04/06 08:51:01;;;;;;;11.20;3.75;;;;;;;29.88;24.41;100122.78;5093195;28;20094;-37
2024/04/06 08:53:28;;;;;;;6.63;3.50;;;;;;;30.31;23.02;100116.44;5093198;28;20030;-38
2024/04/06 08:55:55;;;;;;;10.93;3.20;;;;;;;30.23;23.57;100117.25;5093052;28;20058;-39
2024/04/06 08:58:21;;;;;;;12.20;3.20;;;;;;;30.25;23.62;100112.22;5092894;28;20429;-39
2024/04/06 09:00:48;;;;;;;7.47;3.30;;;;;;;30.09;23.22;100111.94;5093038;28;20059;-40
2024/04/06 09:03:14;;;;;;;11.30;3.20;;;;;;;29.49;24.74;100112.75;5093214;28;20027;-39
2024/04/06 09:05:43;;;;;;;12.82;3.22;;;;;;;29.14;24.43;100104.50;5093050;28;20078;-39
2024/04/06 09:08:15;;;;;;;9.85;3.50;;;;;;;29.88;23.79;100100.84;5091667;28;20031;-38
2024/04/06 09:10:41;;;;;;;9.93;3.03;;;;;;;30.39;23.87;100098.34;5093642;28;20091;-38
2024/04/06 09:13:07;;;;;;;11.77;2.90;;;;;;;30.58;23.81;100103.44;5093032;28;20019;-36
2024/04/06 09:15:33;;;;;;;6.07;2.70;;;;;;;31.04;23.14;100095.50;5092886;28;20422;-38
2024/04/06 09:17:59;;;;;;;7.63;2.75;;;;;;;31.58;22.81;100097.56;5092840;28;20131;-39
2024/04/06 09:20:25;;;;;;;7.65;2.90;;;;;;;30.44;23.18;100091.88;5093414;28;20089;-38
2024/04/06 09:22:54;;;;;;;7.40;2.85;;;;;;;30.31;23.32;100082.66;5092614;28;20020;-39
2024/04/06 09:25:22;;;;;;;5.57;2.63;;;;;;;30.23;24.04;100089.00;5093003;28;20073;-39
2024/04/06 09:27:47;;;;;;;6.80;2.63;;;;;;;30.88;23.23;100084.22;5090253;28;20013;-35
2024/04/06 09:30:13;;;;;;;7.63;2.80;;;;;;;31.43;22.49;100085.19;5072792;28;20377;-39
2024/04/06 09:32:43;;;;;;;9.88;2.72;;;;;;;31.86;21.85;100079.34;5086506;28;20023;-36
2024/04/06 09:35:10;;;;;;;9.80;2.53;;;;;;;31.95;21.75;100082.81;5092827;28;20102;-38
2024/04/06 09:37:39;;;;;;;3.45;2.20;;;;;;;31.92;21.33;100082.69;5092544;28;20016;-39
2024/04/06 09:40:08;;;;;;;7.75;2.20;;;;;;;32.20;21.29;100074.63;5092338;28;20429;-38
2024/04/06 09:42:36;;;;;;;5.03;2.05;;;;;;;32.10;21.61;100081.38;5092166;28;20027;-38
2024/04/06 09:45:03;;;;;;;5.53;2.20;;;;;;;32.25;20.99;100071.69;5092298;28;20104;-39
2024/04/06 09:47:30;;;;;;;6.90;2.30;;;;;;;32.20;21.12;100068.34;5092092;28;20012;-39
2024/04/06 09:49:56;;;;;;;6.55;2.67;;;;;;;32.09;21.54;100057.75;5092103;28;20059;-40
2024/04/06 09:52:22;;;;;;;5.70;2.10;;;;;;;32.50;20.88;100055.16;5091811;28;20012;-40
2024/04/06 09:54:48;;;;;;;5.93;2.10;;;;;;;32.64;20.68;100052.91;5092082;28;20098;-41
2024/04/06 09:57:14;;;;;;;5.05;1.80;;;;;;;31.90;21.27;100058.25;5091867;28;20548;-40
2024/04/06 09:59:40;;;;;;;6.07;1.83;;;;;;;32.04;21.19;100059.91;5083379;28;20020;-39
2024/04/06 10:02:06;;;;;;;2.92;1.85;;;;;;;31.90;21.08;100047.25;5085643;28;20627;-40
2024/04/06 10:04:37;;;;;;;6.88;1.73;;;;;;;31.87;21.12;100049.88;5091927;28;20465;-39
2024/04/06 10:07:06;;;;;;;3.13;1.60;;;;;;;31.22;21.96;100047.50;5092006;28;20025;-39
2024/04/06 10:09:33;;;;;;;4.28;1.85;;;;;;;31.36;22.26;100042.53;5092030;28;20388;-40
2024/04/06 10:11:59;;;;;;;3.53;1.73;;;;;;;31.84;21.66;100036.81;5091996;28;20038;-41
2024/04/06 10:14:29;;;;;;;4.00;1.83;;;;;;;32.18;20.87;100032.91;5091564;28;20023;-37
2024/04/06 10:17:13;;;;;;;3.22;1.80;;;;;;;31.72;21.58;100032.88;5092098;28;20028;-39
2024/04/06 10:19:39;;;;;;;3.15;1.85;;;;;;;31.24;22.21;100027.94;5091769;28;20024;-39
2024/04/06 10:22:06;;;;;;;2.80;1.88;;;;;;;31.00;22.09;100026.66;5091500;28;20031;-39
2024/04/06 10:24:34;;;;;;;4.35;2.10;;;;;;;31.09;21.87;100015.59;5091644;28;20020;-39
2024/04/06 10:26:59;;;;;;;2.60;1.45;;;;;;;31.28;21.58;100013.19;5091891;28;20019;-39
2024/04/06 10:29:27;;;;;;;4.53;2.10;;;;;;;31.61;21.94;100003.38;5091196;28;20062;-40
2024/04/06 10:31:53;;;;;;;5.68;1.90;;;;;;;31.60;21.79;99999.81;5091341;28;20024;-39
2024/04/06 10:34:18;;;;;;;6.88;2.05;;;;;;;31.13;22.12;100003.63;5089962;28;20024;-39
2024/04/06 10:36:46;;;;;;;5.80;1.90;;;;;;;31.02;22.41;99994.16;5090557;28;20472;-37
2024/04/06 10:39:11;;;;;;;2.95;1.70;;;;;;;31.89;21.64;99987.88;5084893;28;20052;-36
2024/04/06 10:41:44;;;;;;;2.15;1.70;;;;;;;31.60;21.80;99986.06;5090582;28;20082;-39
2024/04/06 10:44:13;;;;;;;5.03;2.20;;;;;;;32.26;20.93;99979.66;5090387;28;20061;-40
2024/04/06 10:46:38;;;;;;;;;;;;;;;32.17;20.68;99978.97;5089491;28;20027;-39
2024/04/06 10:49:11;;;;;;;3.05;1.65;;;;;;;31.98;21.17;99970.44;5090753;28;20260;-40
2024/04/06 10:51:37;;;;;;;3.67;1.60;;;;;;;31.75;20.83;99966.16;5090061;28;20038;-40
2024/04/06 10:54:04;;;;;;;3.33;1.50;;;;;;;31.96;20.62;99966.06;5090363;28;20111;-41
2024/04/06 10:56:29;;;;;;;3.05;1.58;;;;;;;32.20;20.67;99956.28;5090553;28;20144;-41
2024/04/06 10:58:55;;;;;;;4.57;2.03;;;;;;;32.35;20.18;99954.78;5090045;28;20601;-41
2024/04/06 11:01:23;;;;;;;11.73;8.35;;;;;;;32.45;20.27;99946.06;5090149;28;20028;-41
2024/04/06 11:03:50;;;;;;;3.83;1.90;;;;;;;32.26;20.35;99943.88;5090032;28;20048;-40
2024/04/06 11:06:15;;;;;;;7.35;1.95;;;;;;;32.58;20.46;99948.81;5088734;28;20101;-41
2024/04/06 11:08:41;;;;;;;4.70;1.60;;;;;;;32.38;20.11;99937.56;5089860;28;20020;-40
2024/04/06 11:11:08;;;;;;;3.78;1.42;;;;;;;32.33;20.23;99935.06;5089695;28;20044;-39
2024/04/06 11:13:42;;;;;;;2.15;1.70;;;;;;;32.87;19.46;99926.47;5089659;28;20020;-38
2024/04/06 11:16:11;;;;;;;5.25;1.60;;;;;;;32.80;19.64;99926.25;5089811;28;20024;-39
2024/04/06 11:18:46;;;;;;;5.20;1.52;;;;;;;32.64;19.74;99925.41;5089855;28;20027;-40